Rickmers Seoul — V7EI5 — position and weather

sailwx.info

Track history (hours):
 
Tides and Currents Weather Stations Pressure Air Temp Water Temp Dewpoint Dewpoint Depression Visibility Wind Speed Wind Dir Waves Ship Positions

Rickmers Seoul

Last reported at 2017-Apr-23 15:16 UTC. Time now 2017-Apr-23 23:26 UTC.
Position N 36°01' W 005°02'.

Length 192.9 m; beam 27.8 m; draft 11.2 m.

Type: Cargo ship. MMSI: 538001809.

Date/timePositionNaut miles runAvg speedWind from/ knotsBaromVisibWave heightAir tempDewpointWater temp
2017-Apr-23 15:16N 36°01' W 005°02'415.0
2017-Apr-23 15:00N 36°00' W 005°07'1414.4
2017-Apr-23 14:00N 35°58' W 005°24'713.0
2017-Apr-23 13:30N 35°56' W 005°32'16812.6
2017-Apr-23 00:11N 36°29' W 008°57'7512.1
2017-Apr-22 18:01N 37°32' W 009°46'013.6
2017-Apr-22 18:01N 37°32' W 009°46'713.9
2017-Apr-22 17:30N 37°39' W 009°48'713.9
2017-Apr-22 17:00N 37°46' W 009°50'713.9
2017-Apr-22 16:31N 37°53' W 009°52'714.0
2017-Apr-22 16:00N 37°60' W 009°54'714.1
2017-Apr-22 15:30N 38°06' W 009°56'714.1
2017-Apr-22 15:00N 38°13' W 009°59'714.2
2017-Apr-22 14:30N 38°20' W 010°01'1414.0
2017-Apr-22 13:30N 38°34' W 010°05'817.0
2017-Apr-22 13:00N 38°42' W 010°07'917.5
2017-Apr-22 12:30N 38°51' W 010°06'917.5
2017-Apr-22 12:00N 38°60' W 010°06'917.4
2017-Apr-22 11:30N 39°08' W 010°06'915.4
2017-Apr-22 10:55N 39°18' W 010°06'4513.6
2017-Apr-22 07:36N 40°02' W 010°06'113.8
2017-Apr-22 07:30N 40°04' W 010°06'2014.0
2017-Apr-22 06:04N 40°24' W 010°06'2114.0
2017-Apr-22 04:33N 40°45' W 010°06'114.0
2017-Apr-22 04:29N 40°46' W 010°07'914.1
2017-Apr-22 03:53N 40°55' W 010°06'514.2
2017-Apr-22 03:30N 41°00' W 010°07'714.3
2017-Apr-22 03:00N 41°07' W 010°06'23810.9
2017-Apr-21 05:10N 43°52' W 006°13'314.1
2017-Apr-21 04:59N 43°52' W 006°09'714.1
2017-Apr-21 04:30N 43°51' W 005°60'714.2
2017-Apr-21 04:00N 43°50' W 005°50'714.0
2017-Apr-21 03:30N 43°50' W 005°41'814.4
2017-Apr-21 02:59N 43°49' W 005°30'714.0
2017-Apr-21 02:30N 43°48' W 005°21'1313.6
2017-Apr-21 01:32N 43°47' W 005°03'313.7
2017-Apr-21 01:16N 43°47' W 004°58'413.6
2017-Apr-21 01:00N 43°46' W 004°53'  
2017-Apr-18 01:06N 43°42' W 003°16'816.0
2017-Apr-18 00:37N 43°49' W 003°19'17916.4
2017-Apr-17 13:44N 46°36' W 004°51'517.0
2017-Apr-17 13:26N 46°41' W 004°54'1016.3
2017-Apr-17 12:47N 46°51' W 004°60'516.6
2017-Apr-17 12:30N 46°55' W 005°02'916.6
2017-Apr-17 11:59N 47°03' W 005°07'917.1
2017-Apr-17 11:27N 47°11' W 005°12'917.1
2017-Apr-17 10:57N 47°19' W 005°16'9915.0
2017-Apr-17 04:23N 48°57' W 005°36'1015.2
2017-Apr-17 03:44N 49°03' W 005°24'313.0
2017-Apr-17 03:30N 49°04' W 005°20'812.0
2017-Apr-17 02:51N 49°08' W 005°09'511.7
2017-Apr-17 02:24N 49°11' W 005°02'612.0
2017-Apr-17 01:56N 49°13' W 004°55'715.9
2017-Apr-17 01:30N 49°17' W 004°46'3715.8
2017-Apr-16 23:10N 49°36' W 003°57'314.9
2017-Apr-16 22:58N 49°37' W 003°53'714.5
2017-Apr-16 22:30N 49°40' W 003°44'714.2
2017-Apr-16 22:00N 49°43' W 003°34'713.8
2017-Apr-16 21:30N 49°47' W 003°26'714.0
2017-Apr-16 21:00N 49°51' W 003°16'713.8
2017-Apr-16 20:30N 49°54' W 003°07'714.2
2017-Apr-16 20:00N 49°57' W 002°57'714.4
2017-Apr-16 19:30N 49°60' W 002°46'715.0
2017-Apr-16 19:00N 50°02' W 002°35'3017.2
2017-Apr-16 17:16N 50°10' W 001°50'518.8
2017-Apr-16 17:00N 50°11' W 001°43'918.6
2017-Apr-16 16:30N 50°14' W 001°29'918.7
2017-Apr-16 16:00N 50°17' W 001°15'1019.0
2017-Apr-16 15:30N 50°20' W 001°01'918.1
2017-Apr-16 15:00N 50°22' W 000°47'917.3
2017-Apr-16 14:31N 50°25' W 000°34'1716.9
2017-Apr-16 13:31N 50°29' W 000°09'816.1
2017-Apr-16 13:00N 50°31' E 000°03'815.7
2017-Apr-16 12:30N 50°33' E 000°15'815.4
2017-Apr-16 12:01N 50°35' E 000°27'815.4
2017-Apr-16 11:31N 50°38' E 000°38'816.2
2017-Apr-16 11:01N 50°43' E 000°48'1017.2
2017-Apr-16 10:27N 50°49' E 001°00'818.3
2017-Apr-16 10:00N 50°54' E 001°10'919.1
2017-Apr-16 09:31N 51°01' E 001°21'1019.5
2017-Apr-16 09:00N 51°07' E 001°33'918.8
2017-Apr-16 08:30N 51°13' E 001°45'918.2
2017-Apr-16 08:00N 51°21' E 001°51'816.8
2017-Apr-16 07:30N 51°28' E 001°59'816.4
2017-Apr-16 07:00N 51°33' E 002°09'9215.2
2017-Apr-16 00:59N 52°45' E 003°41'816.6
2017-Apr-16 00:29N 52°52' E 003°50'816.3
2017-Apr-16 00:00N 52°58' E 003°59'916.2
2017-Apr-15 23:27N 53°03' E 004°10'816.0
2017-Apr-15 22:56N 53°08' E 004°21'13413.8
2017-Apr-15 13:14N 54°02' E 007°48'313.5
2017-Apr-15 13:00N 54°01' E 007°53'713.3
2017-Apr-15 12:29N 54°01' E 008°05'612.5
2017-Apr-15 12:00N 54°00' E 008°15'510.6
2017-Apr-15 11:30N 53°59' E 008°24'612.0
2017-Apr-15 11:00N 53°58' E 008°34'510.9
2017-Apr-15 10:31N 53°55' E 008°41'611.7
2017-Apr-15 10:00N 53°50' E 008°48'815.6
2017-Apr-15 09:30N 53°52' E 009°01'612.8
2017-Apr-15 09:00N 53°53' E 009°12'713.0
2017-Apr-15 08:31N 53°50' E 009°21'815.9
2017-Apr-15 08:00N 53°43' E 009°28'815.0
2017-Apr-15 07:30N 53°37' E 009°34'714.8
2017-Apr-15 07:00N 53°34' E 009°46'5 9.4
2017-Apr-15 06:30N 53°33' E 009°54'3 6.6
2017-Apr-15 06:00N 53°30' E 009°58'1 2.5
2017-Apr-15 05:31N 53°29' E 009°59'0 0.0
2017-Apr-15 04:59N 53°29' E 009°59'0 0.0
2017-Apr-15 04:29N 53°29' E 009°59'0 0.0
2017-Apr-15 03:59N 53°29' E 009°59'0 0.0
2017-Apr-15 03:29N 53°29' E 009°59'0 0.0
2017-Apr-15 02:59N 53°29' E 009°59'0 0.0
2017-Apr-15 02:29N 53°29' E 009°59'0 0.0
2017-Apr-15 01:59N 53°29' E 009°59'0 0.0
2017-Apr-15 01:29N 53°29' E 009°59'0 0.0
2017-Apr-15 00:59N 53°29' E 009°59'0 0.0
2017-Apr-15 00:29N 53°29' E 009°59'0 0.0
2017-Apr-14 23:59N 53°29' E 009°59'0 0.0
2017-Apr-14 23:29N 53°29' E 009°59'0 0.0
2017-Apr-14 22:59N 53°29' E 009°59'0 0.0
2017-Apr-14 22:29N 53°29' E 009°59'0 0.0
2017-Apr-14 21:59N 53°29' E 009°59'0 0.0
2017-Apr-14 21:29N 53°29' E 009°59'0 0.0
2017-Apr-14 20:59N 53°29' E 009°59'0 0.0
2017-Apr-14 20:29N 53°29' E 009°59'0 0.0
2017-Apr-14 19:59N 53°29' E 009°59'0 0.0
2017-Apr-14 19:29N 53°29' E 009°59'0 0.0
2017-Apr-14 18:59N 53°29' E 009°59'0 0.0
2017-Apr-14 18:29N 53°29' E 009°59'0 0.0
2017-Apr-14 17:59N 53°29' E 009°59'0 0.0
2017-Apr-14 17:29N 53°29' E 009°59'0 0.0
2017-Apr-14 16:59N 53°29' E 009°59'0 0.0
2017-Apr-14 16:29N 53°29' E 009°59'0 0.0
2017-Apr-14 15:59N 53°29' E 009°59'0 0.0
2017-Apr-14 15:29N 53°29' E 009°59'0 0.0
2017-Apr-14 14:59N 53°29' E 009°59'0 0.0
2017-Apr-14 14:29N 53°29' E 009°59'0 0.0
2017-Apr-14 13:29N 53°29' E 009°59'0 0.0
2017-Apr-14 12:59N 53°29' E 009°59'0 0.0
2017-Apr-14 12:29N 53°29' E 009°59'0 0.0
2017-Apr-14 11:59N 53°29' E 009°59'0 0.0
2017-Apr-14 11:29N 53°29' E 009°59'0 0.0
2017-Apr-14 10:59N 53°29' E 009°59'0 0.0
2017-Apr-14 10:29N 53°29' E 009°59'0 0.0
2017-Apr-14 09:59N 53°29' E 009°59'0 0.0
2017-Apr-14 09:29N 53°29' E 009°59'0 0.0
2017-Apr-14 08:59N 53°29' E 009°59'0 0.0
2017-Apr-14 08:29N 53°29' E 009°59'0 0.0
2017-Apr-14 07:59N 53°29' E 009°59'0 0.0
2017-Apr-14 07:29N 53°29' E 009°59'0 0.0
2017-Apr-14 06:59N 53°29' E 009°59'0 0.0
2017-Apr-14 06:29N 53°29' E 009°59'0 0.0
2017-Apr-14 05:59N 53°29' E 009°59'0 0.0
2017-Apr-14 05:29N 53°29' E 009°59'0 0.0
2017-Apr-14 04:59N 53°29' E 009°59'0 0.0
2017-Apr-14 04:29N 53°29' E 009°59'0 0.0
2017-Apr-14 03:59N 53°29' E 009°59'0 0.0
2017-Apr-14 03:29N 53°29' E 009°59'0 0.0
2017-Apr-14 02:59N 53°29' E 009°59'0 0.0
2017-Apr-14 02:29N 53°29' E 009°59'0 0.0
2017-Apr-14 01:59N 53°29' E 009°59'0 0.0
2017-Apr-14 01:29N 53°29' E 009°59'0 0.0
2017-Apr-14 00:56N 53°29' E 009°59'0 0.0
2017-Apr-14 00:29N 53°29' E 009°59'0 0.0
2017-Apr-13 23:59N 53°29' E 009°59'0 0.0
2017-Apr-13 23:29N 53°29' E 009°59'0 0.0
2017-Apr-13 22:59N 53°29' E 009°59'0 0.0
2017-Apr-13 22:29N 53°29' E 009°59'0 0.0
2017-Apr-13 21:59N 53°29' E 009°59'0 0.0
2017-Apr-13 21:29N 53°29' E 009°59'0 0.0
2017-Apr-13 20:59N 53°29' E 009°59'0 0.0
2017-Apr-13 20:29N 53°29' E 009°59'0 0.0
2017-Apr-13 19:59N 53°29' E 009°59'0 0.0
2017-Apr-13 19:29N 53°29' E 009°59'0 0.0
2017-Apr-13 18:59N 53°29' E 009°59'0 0.0
2017-Apr-13 18:29N 53°29' E 009°59'0 0.0
2017-Apr-13 17:59N 53°29' E 009°59'0 0.0
2017-Apr-13 17:29N 53°29' E 009°59'0 0.0
2017-Apr-13 16:59N 53°29' E 009°59'0 0.5
2017-Apr-13 16:30N 53°30' E 009°59'1 2.2
2017-Apr-13 16:00N 53°30' E 009°57'2 5.0
2017-Apr-13 15:30N 53°32' E 009°55'  
Track history (hours):
 
Tides and Currents Weather Stations Pressure Air Temp Water Temp Dewpoint Dewpoint Depression Visibility Wind Speed Wind Dir Waves Ship Positions

Rickmers Seoul

Last reported at 2017-Apr-23 15:16 UTC. Time now 2017-Apr-23 23:26 UTC.
Position N 36°01' W 005°02'.

Length 192.9 m; beam 27.8 m; draft 11.2 m.

Type: Cargo ship. MMSI: 538001809.

Date/timePositionNaut miles runAvg speedWind from/ knotsBaromVisibWave heightAir tempDewpointWater temp
2017-Apr-23 15:16N 36°01' W 005°02'415.0
2017-Apr-23 15:00N 36°00' W 005°07'1414.4
2017-Apr-23 14:00N 35°58' W 005°24'713.0
2017-Apr-23 13:30N 35°56' W 005°32'16812.6
2017-Apr-23 00:11N 36°29' W 008°57'7512.1
2017-Apr-22 18:01N 37°32' W 009°46'013.6
2017-Apr-22 18:01N 37°32' W 009°46'713.9
2017-Apr-22 17:30N 37°39' W 009°48'713.9
2017-Apr-22 17:00N 37°46' W 009°50'713.9
2017-Apr-22 16:31N 37°53' W 009°52'714.0
2017-Apr-22 16:00N 37°60' W 009°54'714.1
2017-Apr-22 15:30N 38°06' W 009°56'714.1
2017-Apr-22 15:00N 38°13' W 009°59'714.2
2017-Apr-22 14:30N 38°20' W 010°01'1414.0
2017-Apr-22 13:30N 38°34' W 010°05'817.0
2017-Apr-22 13:00N 38°42' W 010°07'917.5
2017-Apr-22 12:30N 38°51' W 010°06'917.5
2017-Apr-22 12:00N 38°60' W 010°06'917.4
2017-Apr-22 11:30N 39°08' W 010°06'915.4
2017-Apr-22 10:55N 39°18' W 010°06'4513.6
2017-Apr-22 07:36N 40°02' W 010°06'113.8
2017-Apr-22 07:30N 40°04' W 010°06'2014.0
2017-Apr-22 06:04N 40°24' W 010°06'2114.0
2017-Apr-22 04:33N 40°45' W 010°06'114.0
2017-Apr-22 04:29N 40°46' W 010°07'914.1
2017-Apr-22 03:53N 40°55' W 010°06'514.2
2017-Apr-22 03:30N 41°00' W 010°07'714.3
2017-Apr-22 03:00N 41°07' W 010°06'23810.9
2017-Apr-21 05:10N 43°52' W 006°13'314.1
2017-Apr-21 04:59N 43°52' W 006°09'714.1
2017-Apr-21 04:30N 43°51' W 005°60'714.2
2017-Apr-21 04:00N 43°50' W 005°50'714.0
2017-Apr-21 03:30N 43°50' W 005°41'814.4
2017-Apr-21 02:59N 43°49' W 005°30'714.0
2017-Apr-21 02:30N 43°48' W 005°21'1313.6
2017-Apr-21 01:32N 43°47' W 005°03'313.7
2017-Apr-21 01:16N 43°47' W 004°58'413.6
2017-Apr-21 01:00N 43°46' W 004°53'  
2017-Apr-18 01:06N 43°42' W 003°16'816.0
2017-Apr-18 00:37N 43°49' W 003°19'17916.4
2017-Apr-17 13:44N 46°36' W 004°51'517.0
2017-Apr-17 13:26N 46°41' W 004°54'1016.3
2017-Apr-17 12:47N 46°51' W 004°60'516.6
2017-Apr-17 12:30N 46°55' W 005°02'916.6
2017-Apr-17 11:59N 47°03' W 005°07'917.1
2017-Apr-17 11:27N 47°11' W 005°12'917.1
2017-Apr-17 10:57N 47°19' W 005°16'9915.0
2017-Apr-17 04:23N 48°57' W 005°36'1015.2
2017-Apr-17 03:44N 49°03' W 005°24'313.0
2017-Apr-17 03:30N 49°04' W 005°20'812.0
2017-Apr-17 02:51N 49°08' W 005°09'511.7
2017-Apr-17 02:24N 49°11' W 005°02'612.0
2017-Apr-17 01:56N 49°13' W 004°55'715.9
2017-Apr-17 01:30N 49°17' W 004°46'3715.8
2017-Apr-16 23:10N 49°36' W 003°57'314.9
2017-Apr-16 22:58N 49°37' W 003°53'714.5
2017-Apr-16 22:30N 49°40' W 003°44'714.2
2017-Apr-16 22:00N 49°43' W 003°34'713.8
2017-Apr-16 21:30N 49°47' W 003°26'714.0
2017-Apr-16 21:00N 49°51' W 003°16'713.8
2017-Apr-16 20:30N 49°54' W 003°07'714.2
2017-Apr-16 20:00N 49°57' W 002°57'714.4
2017-Apr-16 19:30N 49°60' W 002°46'715.0
2017-Apr-16 19:00N 50°02' W 002°35'3017.2
2017-Apr-16 17:16N 50°10' W 001°50'518.8
2017-Apr-16 17:00N 50°11' W 001°43'918.6
2017-Apr-16 16:30N 50°14' W 001°29'918.7
2017-Apr-16 16:00N 50°17' W 001°15'1019.0
2017-Apr-16 15:30N 50°20' W 001°01'918.1
2017-Apr-16 15:00N 50°22' W 000°47'917.3
2017-Apr-16 14:31N 50°25' W 000°34'1716.9
2017-Apr-16 13:31N 50°29' W 000°09'816.1
2017-Apr-16 13:00N 50°31' E 000°03'815.7
2017-Apr-16 12:30N 50°33' E 000°15'815.4
2017-Apr-16 12:01N 50°35' E 000°27'815.4
2017-Apr-16 11:31N 50°38' E 000°38'816.2
2017-Apr-16 11:01N 50°43' E 000°48'1017.2
2017-Apr-16 10:27N 50°49' E 001°00'818.3
2017-Apr-16 10:00N 50°54' E 001°10'919.1
2017-Apr-16 09:31N 51°01' E 001°21'1019.5
2017-Apr-16 09:00N 51°07' E 001°33'918.8
2017-Apr-16 08:30N 51°13' E 001°45'918.2
2017-Apr-16 08:00N 51°21' E 001°51'816.8
2017-Apr-16 07:30N 51°28' E 001°59'816.4
2017-Apr-16 07:00N 51°33' E 002°09'9215.2
2017-Apr-16 00:59N 52°45' E 003°41'816.6
2017-Apr-16 00:29N 52°52' E 003°50'816.3
2017-Apr-16 00:00N 52°58' E 003°59'916.2
2017-Apr-15 23:27N 53°03' E 004°10'816.0
2017-Apr-15 22:56N 53°08' E 004°21'13413.8
2017-Apr-15 13:14N 54°02' E 007°48'313.5
2017-Apr-15 13:00N 54°01' E 007°53'713.3
2017-Apr-15 12:29N 54°01' E 008°05'612.5
2017-Apr-15 12:00N 54°00' E 008°15'510.6
2017-Apr-15 11:30N 53°59' E 008°24'612.0
2017-Apr-15 11:00N 53°58' E 008°34'510.9
2017-Apr-15 10:31N 53°55' E 008°41'611.7
2017-Apr-15 10:00N 53°50' E 008°48'815.6
2017-Apr-15 09:30N 53°52' E 009°01'612.8
2017-Apr-15 09:00N 53°53' E 009°12'713.0
2017-Apr-15 08:31N 53°50' E 009°21'815.9
2017-Apr-15 08:00N 53°43' E 009°28'815.0
2017-Apr-15 07:30N 53°37' E 009°34'714.8
2017-Apr-15 07:00N 53°34' E 009°46'5 9.4
2017-Apr-15 06:30N 53°33' E 009°54'3 6.6
2017-Apr-15 06:00N 53°30' E 009°58'1 2.5
2017-Apr-15 05:31N 53°29' E 009°59'0 0.0
2017-Apr-15 04:59N 53°29' E 009°59'0 0.0
2017-Apr-15 04:29N 53°29' E 009°59'0 0.0
2017-Apr-15 03:59N 53°29' E 009°59'0 0.0
2017-Apr-15 03:29N 53°29' E 009°59'0 0.0
2017-Apr-15 02:59N 53°29' E 009°59'0 0.0
2017-Apr-15 02:29N 53°29' E 009°59'0 0.0
2017-Apr-15 01:59N 53°29' E 009°59'0 0.0
2017-Apr-15 01:29N 53°29' E 009°59'0 0.0
2017-Apr-15 00:59N 53°29' E 009°59'0 0.0
2017-Apr-15 00:29N 53°29' E 009°59'0 0.0
2017-Apr-14 23:59N 53°29' E 009°59'0 0.0
2017-Apr-14 23:29N 53°29' E 009°59'0 0.0
2017-Apr-14 22:59N 53°29' E 009°59'0 0.0
2017-Apr-14 22:29N 53°29' E 009°59'0 0.0
2017-Apr-14 21:59N 53°29' E 009°59'0 0.0
2017-Apr-14 21:29N 53°29' E 009°59'0 0.0
2017-Apr-14 20:59N 53°29' E 009°59'0 0.0
2017-Apr-14 20:29N 53°29' E 009°59'0 0.0
2017-Apr-14 19:59N 53°29' E 009°59'0 0.0
2017-Apr-14 19:29N 53°29' E 009°59'0 0.0
2017-Apr-14 18:59N 53°29' E 009°59'0 0.0
2017-Apr-14 18:29N 53°29' E 009°59'0 0.0
2017-Apr-14 17:59N 53°29' E 009°59'0 0.0
2017-Apr-14 17:29N 53°29' E 009°59'0 0.0
2017-Apr-14 16:59N 53°29' E 009°59'0 0.0
2017-Apr-14 16:29N 53°29' E 009°59'0 0.0
2017-Apr-14 15:59N 53°29' E 009°59'0 0.0
2017-Apr-14 15:29N 53°29' E 009°59'0 0.0
2017-Apr-14 14:59N 53°29' E 009°59'0 0.0
2017-Apr-14 14:29N 53°29' E 009°59'0 0.0
2017-Apr-14 13:29N 53°29' E 009°59'0 0.0
2017-Apr-14 12:59N 53°29' E 009°59'0 0.0
2017-Apr-14 12:29N 53°29' E 009°59'0 0.0
2017-Apr-14 11:59N 53°29' E 009°59'0 0.0
2017-Apr-14 11:29N 53°29' E 009°59'0 0.0
2017-Apr-14 10:59N 53°29' E 009°59'0 0.0
2017-Apr-14 10:29N 53°29' E 009°59'0 0.0
2017-Apr-14 09:59N 53°29' E 009°59'0 0.0
2017-Apr-14 09:29N 53°29' E 009°59'0 0.0
2017-Apr-14 08:59N 53°29' E 009°59'0 0.0
2017-Apr-14 08:29N 53°29' E 009°59'0 0.0
2017-Apr-14 07:59N 53°29' E 009°59'0 0.0
2017-Apr-14 07:29N 53°29' E 009°59'0 0.0
2017-Apr-14 06:59N 53°29' E 009°59'0 0.0
2017-Apr-14 06:29N 53°29' E 009°59'0 0.0
2017-Apr-14 05:59N 53°29' E 009°59'0 0.0
2017-Apr-14 05:29N 53°29' E 009°59'0 0.0
2017-Apr-14 04:59N 53°29' E 009°59'0 0.0
2017-Apr-14 04:29N 53°29' E 009°59'0 0.0
2017-Apr-14 03:59N 53°29' E 009°59'0 0.0
2017-Apr-14 03:29N 53°29' E 009°59'0 0.0
2017-Apr-14 02:59N 53°29' E 009°59'0 0.0
2017-Apr-14 02:29N 53°29' E 009°59'0 0.0
2017-Apr-14 01:59N 53°29' E 009°59'0 0.0
2017-Apr-14 01:29N 53°29' E 009°59'0 0.0
2017-Apr-14 00:56N 53°29' E 009°59'0 0.0
2017-Apr-14 00:29N 53°29' E 009°59'0 0.0
2017-Apr-13 23:59N 53°29' E 009°59'0 0.0
2017-Apr-13 23:29N 53°29' E 009°59'0 0.0
2017-Apr-13 22:59N 53°29' E 009°59'0 0.0
2017-Apr-13 22:29N 53°29' E 009°59'0 0.0
2017-Apr-13 21:59N 53°29' E 009°59'0 0.0
2017-Apr-13 21:29N 53°29' E 009°59'0 0.0
2017-Apr-13 20:59N 53°29' E 009°59'0 0.0
2017-Apr-13 20:29N 53°29' E 009°59'0 0.0
2017-Apr-13 19:59N 53°29' E 009°59'0 0.0
2017-Apr-13 19:29N 53°29' E 009°59'0 0.0
2017-Apr-13 18:59N 53°29' E 009°59'0 0.0
2017-Apr-13 18:29N 53°29' E 009°59'0 0.0
2017-Apr-13 17:59N 53°29' E 009°59'0 0.0
2017-Apr-13 17:29N 53°29' E 009°59'0 0.0
2017-Apr-13 16:59N 53°29' E 009°59'0 0.5
2017-Apr-13 16:30N 53°30' E 009°59'1 2.2
2017-Apr-13 16:00N 53°30' E 009°57'2 5.0
2017-Apr-13 15:30N 53°32' E 009°55'  

Dump ship's entire track history